sensor_id;sensor_type;location;lat;lon;timestamp;P1;P2;P0
49644;PMS5003;36494;50.730;-1.932;2023-04-07T00:02:11;21;20;
49644;PMS5003;36494;50.730;-1.932;2023-04-07T00:04:36;18;17;
49644;PMS5003;36494;50.730;-1.932;2023-04-07T00:07:01;17;17;
49644;PMS5003;36494;50.730;-1.932;2023-04-07T00:09:27;14;14;
49644;PMS5003;36494;50.730;-1.932;2023-04-07T00:11:52;9;8;
49644;PMS5003;36494;50.730;-1.932;2023-04-07T00:14:18;18;18;
49644;PMS5003;36494;50.730;-1.932;2023-04-07T00:16:43;26;26;
49644;PMS5003;36494;50.730;-1.932;2023-04-07T00:19:08;27;27;
49644;PMS5003;36494;50.730;-1.932;2023-04-07T00:21:34;13;12;
49644;PMS5003;36494;50.730;-1.932;2023-04-07T00:23:59;12;10;
49644;PMS5003;36494;50.730;-1.932;2023-04-07T00:26:24;12;11;
49644;PMS5003;36494;50.730;-1.932;2023-04-07T00:28:49;17;16;
49644;PMS5003;36494;50.730;-1.932;2023-04-07T00:31:15;5;5;
49644;PMS5003;36494;50.730;-1.932;2023-04-07T00:33:40;6;6;
49644;PMS5003;36494;50.730;-1.932;2023-04-07T00:36:06;5;5;
49644;PMS5003;36494;50.730;-1.932;2023-04-07T00:38:31;4;4;
49644;PMS5003;36494;50.730;-1.932;2023-04-07T00:40:57;6;5;
49644;PMS5003;36494;50.730;-1.932;2023-04-07T00:43:22;4;3;
49644;PMS5003;36494;50.730;-1.932;2023-04-07T00:45:48;5;5;
49644;PMS5003;36494;50.730;-1.932;2023-04-07T00:48:13;5;5;
49644;PMS5003;36494;50.730;-1.932;2023-04-07T00:50:39;5;4;
49644;PMS5003;36494;50.730;-1.932;2023-04-07T00:53:04;7;6;
49644;PMS5003;36494;50.730;-1.932;2023-04-07T00:55:29;5;5;
49644;PMS5003;36494;50.730;-1.932;2023-04-07T00:57:55;4;4;
49644;PMS5003;36494;50.730;-1.932;2023-04-07T01:00:20;6;6;
49644;PMS5003;36494;50.730;-1.932;2023-04-07T01:02:47;5;5;
49644;PMS5003;36494;50.730;-1.932;2023-04-07T01:05:13;6;5;
49644;PMS5003;36494;50.730;-1.932;2023-04-07T01:07:39;4;4;
49644;PMS5003;36494;50.730;-1.932;2023-04-07T01:10:03;6;5;
49644;PMS5003;36494;50.730;-1.932;2023-04-07T01:12:29;5;5;
49644;PMS5003;36494;50.730;-1.932;2023-04-07T01:14:55;4;4;
49644;PMS5003;36494;50.730;-1.932;2023-04-07T01:17:18;11;10;
49644;PMS5003;36494;50.730;-1.932;2023-04-07T01:19:45;6;5;
49644;PMS5003;36494;50.730;-1.932;2023-04-07T01:22:10;4;4;
49644;PMS5003;36494;50.730;-1.932;2023-04-07T01:24:41;6;5;
49644;PMS5003;36494;50.730;-1.932;2023-04-07T01:27:04;5;5;
49644;PMS5003;36494;50.730;-1.932;2023-04-07T01:29:27;6;5;
49644;PMS5003;36494;50.730;-1.932;2023-04-07T01:31:51;5;4;
49644;PMS5003;36494;50.730;-1.932;2023-04-07T01:34:16;4;4;
49644;PMS5003;36494;50.730;-1.932;2023-04-07T01:36:42;4;4;
49644;PMS5003;36494;50.730;-1.932;2023-04-07T01:39:07;5;4;
49644;PMS5003;36494;50.730;-1.932;2023-04-07T01:41:32;4;4;
49644;PMS5003;36494;50.730;-1.932;2023-04-07T01:43:58;5;5;
49644;PMS5003;36494;50.730;-1.932;2023-04-07T01:46:23;7;6;
49644;PMS5003;36494;50.730;-1.932;2023-04-07T01:48:49;5;4;
49644;PMS5003;36494;50.730;-1.932;2023-04-07T01:51:15;4;4;
49644;PMS5003;36494;50.730;-1.932;2023-04-07T01:53:40;4;4;
49644;PMS5003;36494;50.730;-1.932;2023-04-07T01:56:05;5;5;
49644;PMS5003;36494;50.730;-1.932;2023-04-07T01:58:31;6;6;
49644;PMS5003;36494;50.730;-1.932;2023-04-07T02:00:56;4;4;
49644;PMS5003;36494;50.730;-1.932;2023-04-07T02:03:22;4;4;
49644;PMS5003;36494;50.730;-1.932;2023-04-07T02:05:47;4;4;
49644;PMS5003;36494;50.730;-1.932;2023-04-07T02:08:12;5;5;
49644;PMS5003;36494;50.730;-1.932;2023-04-07T02:10:37;5;5;
49644;PMS5003;36494;50.730;-1.932;2023-04-07T02:13:03;7;7;
49644;PMS5003;36494;50.730;-1.932;2023-04-07T02:15:28;6;5;
49644;PMS5003;36494;50.730;-1.932;2023-04-07T02:17:53;5;5;
49644;PMS5003;36494;50.730;-1.932;2023-04-07T02:20:19;5;5;
49644;PMS5003;36494;50.730;-1.932;2023-04-07T02:22:44;4;4;
49644;PMS5003;36494;50.730;-1.932;2023-04-07T02:27:35;4;4;
49644;PMS5003;36494;50.730;-1.932;2023-04-07T02:30:00;6;5;
49644;PMS5003;36494;50.730;-1.932;2023-04-07T02:32:25;6;5;
49644;PMS5003;36494;50.730;-1.932;2023-04-07T02:34:51;6;5;
49644;PMS5003;36494;50.730;-1.932;2023-04-07T02:37:16;9;9;
49644;PMS5003;36494;50.730;-1.932;2023-04-07T02:39:42;7;7;
49644;PMS5003;36494;50.730;-1.932;2023-04-07T02:42:07;7;7;
49644;PMS5003;36494;50.730;-1.932;2023-04-07T02:44:33;4;4;
49644;PMS5003;36494;50.730;-1.932;2023-04-07T02:46:58;5;5;
49644;PMS5003;36494;50.730;-1.932;2023-04-07T02:49:23;6;6;
49644;PMS5003;36494;50.730;-1.932;2023-04-07T02:51:49;7;6;
49644;PMS5003;36494;50.730;-1.932;2023-04-07T02:54:14;5;5;
49644;PMS5003;36494;50.730;-1.932;2023-04-07T02:56:40;7;7;
49644;PMS5003;36494;50.730;-1.932;2023-04-07T02:59:05;6;5;
49644;PMS5003;36494;50.730;-1.932;2023-04-07T03:01:30;6;6;
49644;PMS5003;36494;50.730;-1.932;2023-04-07T03:03:56;6;6;
49644;PMS5003;36494;50.730;-1.932;2023-04-07T03:06:21;6;6;
49644;PMS5003;36494;50.730;-1.932;2023-04-07T03:08:47;6;5;
49644;PMS5003;36494;50.730;-1.932;2023-04-07T03:11:12;6;5;
49644;PMS5003;36494;50.730;-1.932;2023-04-07T03:13:38;5;4;
49644;PMS5003;36494;50.730;-1.932;2023-04-07T03:16:03;5;4;
49644;PMS5003;36494;50.730;-1.932;2023-04-07T03:18:28;6;6;
49644;PMS5003;36494;50.730;-1.932;2023-04-07T03:20:54;6;6;
49644;PMS5003;36494;50.730;-1.932;2023-04-07T03:23:19;5;5;
49644;PMS5003;36494;50.730;-1.932;2023-04-07T03:25:45;4;4;
49644;PMS5003;36494;50.730;-1.932;2023-04-07T03:28:10;5;4;
49644;PMS5003;36494;50.730;-1.932;2023-04-07T03:30:36;6;5;
49644;PMS5003;36494;50.730;-1.932;2023-04-07T03:33:01;4;4;
49644;PMS5003;36494;50.730;-1.932;2023-04-07T03:35:26;6;5;
49644;PMS5003;36494;50.730;-1.932;2023-04-07T03:37:52;5;5;
49644;PMS5003;36494;50.730;-1.932;2023-04-07T03:40:18;6;5;
49644;PMS5003;36494;50.730;-1.932;2023-04-07T03:42:44;4;4;
49644;PMS5003;36494;50.730;-1.932;2023-04-07T03:45:08;5;5;
49644;PMS5003;36494;50.730;-1.932;2023-04-07T03:47:34;6;5;
49644;PMS5003;36494;50.730;-1.932;2023-04-07T03:49:59;4;4;
49644;PMS5003;36494;50.730;-1.932;2023-04-07T03:52:25;6;5;
49644;PMS5003;36494;50.730;-1.932;2023-04-07T03:54:50;5;5;
49644;PMS5003;36494;50.730;-1.932;2023-04-07T03:57:15;6;5;
49644;PMS5003;36494;50.730;-1.932;2023-04-07T03:59:41;7;7;
49644;PMS5003;36494;50.730;-1.932;2023-04-07T04:02:06;6;6;
49644;PMS5003;36494;50.730;-1.932;2023-04-07T04:04:32;7;7;
49644;PMS5003;36494;50.730;-1.932;2023-04-07T04:06:57;9;9;
49644;PMS5003;36494;50.730;-1.932;2023-04-07T04:09:22;7;7;
49644;PMS5003;36494;50.730;-1.932;2023-04-07T04:11:48;8;8;
49644;PMS5003;36494;50.730;-1.932;2023-04-07T04:14:13;7;7;
49644;PMS5003;36494;50.730;-1.932;2023-04-07T04:16:39;8;8;
49644;PMS5003;36494;50.730;-1.932;2023-04-07T04:19:04;10;10;
49644;PMS5003;36494;50.730;-1.932;2023-04-07T04:21:30;9;9;
49644;PMS5003;36494;50.730;-1.932;2023-04-07T04:23:55;8;8;
49644;PMS5003;36494;50.730;-1.932;2023-04-07T04:26:21;10;9;
49644;PMS5003;36494;50.730;-1.932;2023-04-07T04:28:46;9;9;
49644;PMS5003;36494;50.730;-1.932;2023-04-07T04:31:11;8;7;
49644;PMS5003;36494;50.730;-1.932;2023-04-07T04:33:37;8;8;
49644;PMS5003;36494;50.730;-1.932;2023-04-07T04:36:02;9;8;
49644;PMS5003;36494;50.730;-1.932;2023-04-07T04:38:28;10;9;
49644;PMS5003;36494;50.730;-1.932;2023-04-07T04:40:53;10;9;
49644;PMS5003;36494;50.730;-1.932;2023-04-07T04:43:19;7;7;
49644;PMS5003;36494;50.730;-1.932;2023-04-07T04:45:44;6;6;
49644;PMS5003;36494;50.730;-1.932;2023-04-07T04:48:09;7;6;
49644;PMS5003;36494;50.730;-1.932;2023-04-07T04:50:35;9;8;
49644;PMS5003;36494;50.730;-1.932;2023-04-07T04:53:00;6;6;
49644;PMS5003;36494;50.730;-1.932;2023-04-07T04:55:25;6;6;
49644;PMS5003;36494;50.730;-1.932;2023-04-07T04:57:51;7;7;
49644;PMS5003;36494;50.730;-1.932;2023-04-07T05:00:16;5;5;
49644;PMS5003;36494;50.730;-1.932;2023-04-07T05:02:42;6;6;
49644;PMS5003;36494;50.730;-1.932;2023-04-07T05:05:08;6;6;
49644;PMS5003;36494;50.730;-1.932;2023-04-07T05:07:33;6;6;
49644;PMS5003;36494;50.730;-1.932;2023-04-07T05:09:58;7;6;
49644;PMS5003;36494;50.730;-1.932;2023-04-07T05:12:23;6;6;
49644;PMS5003;36494;50.730;-1.932;2023-04-07T05:14:49;7;7;
49644;PMS5003;36494;50.730;-1.932;2023-04-07T05:17:14;5;5;
49644;PMS5003;36494;50.730;-1.932;2023-04-07T05:19:40;5;4;
49644;PMS5003;36494;50.730;-1.932;2023-04-07T05:22:05;7;6;
49644;PMS5003;36494;50.730;-1.932;2023-04-07T05:24:30;4;4;
49644;PMS5003;36494;50.730;-1.932;2023-04-07T05:26:56;5;5;
49644;PMS5003;36494;50.730;-1.932;2023-04-07T05:29:22;5;5;
49644;PMS5003;36494;50.730;-1.932;2023-04-07T05:31:47;5;5;
49644;PMS5003;36494;50.730;-1.932;2023-04-07T05:34:12;5;4;
49644;PMS5003;36494;50.730;-1.932;2023-04-07T05:36:37;5;4;
49644;PMS5003;36494;50.730;-1.932;2023-04-07T05:39:03;5;5;
49644;PMS5003;36494;50.730;-1.932;2023-04-07T05:41:28;7;7;
49644;PMS5003;36494;50.730;-1.932;2023-04-07T05:43:54;5;5;
49644;PMS5003;36494;50.730;-1.932;2023-04-07T05:46:19;5;5;
49644;PMS5003;36494;50.730;-1.932;2023-04-07T05:48:45;8;5;
49644;PMS5003;36494;50.730;-1.932;2023-04-07T05:51:10;5;5;
49644;PMS5003;36494;50.730;-1.932;2023-04-07T05:53:36;5;5;
49644;PMS5003;36494;50.730;-1.932;2023-04-07T05:56:01;5;5;
49644;PMS5003;36494;50.730;-1.932;2023-04-07T05:58:26;6;4;
49644;PMS5003;36494;50.730;-1.932;2023-04-07T06:00:52;4;4;
49644;PMS5003;36494;50.730;-1.932;2023-04-07T06:03:17;7;6;
49644;PMS5003;36494;50.730;-1.932;2023-04-07T06:05:44;4;4;
49644;PMS5003;36494;50.730;-1.932;2023-04-07T06:08:08;5;5;
49644;PMS5003;36494;50.730;-1.932;2023-04-07T06:10:34;4;4;
49644;PMS5003;36494;50.730;-1.932;2023-04-07T06:12:59;5;5;
49644;PMS5003;36494;50.730;-1.932;2023-04-07T06:15:24;5;5;
49644;PMS5003;36494;50.730;-1.932;2023-04-07T06:17:50;6;6;
49644;PMS5003;36494;50.730;-1.932;2023-04-07T06:20:15;7;6;
49644;PMS5003;36494;50.730;-1.932;2023-04-07T06:22:41;6;6;
49644;PMS5003;36494;50.730;-1.932;2023-04-07T06:25:06;7;7;
49644;PMS5003;36494;50.730;-1.932;2023-04-07T06:27:32;6;6;
49644;PMS5003;36494;50.730;-1.932;2023-04-07T06:29:57;7;6;
49644;PMS5003;36494;50.730;-1.932;2023-04-07T06:32:22;5;5;
49644;PMS5003;36494;50.730;-1.932;2023-04-07T06:34:48;4;4;
49644;PMS5003;36494;50.730;-1.932;2023-04-07T06:37:13;5;5;
49644;PMS5003;36494;50.730;-1.932;2023-04-07T06:39:39;7;6;
49644;PMS5003;36494;50.730;-1.932;2023-04-07T06:42:04;5;5;
49644;PMS5003;36494;50.730;-1.932;2023-04-07T06:44:30;4;4;
49644;PMS5003;36494;50.730;-1.932;2023-04-07T06:46:55;5;5;
49644;PMS5003;36494;50.730;-1.932;2023-04-07T06:49:20;5;5;
49644;PMS5003;36494;50.730;-1.932;2023-04-07T06:51:46;5;4;
49644;PMS5003;36494;50.730;-1.932;2023-04-07T06:54:12;5;5;
49644;PMS5003;36494;50.730;-1.932;2023-04-07T06:56:37;4;4;
49644;PMS5003;36494;50.730;-1.932;2023-04-07T06:59:02;4;4;
49644;PMS5003;36494;50.730;-1.932;2023-04-07T07:01:27;3;3;
49644;PMS5003;36494;50.730;-1.932;2023-04-07T07:03:53;8;7;
49644;PMS5003;36494;50.730;-1.932;2023-04-07T07:06:19;4;4;
49644;PMS5003;36494;50.730;-1.932;2023-04-07T07:08:44;4;3;
49644;PMS5003;36494;50.730;-1.932;2023-04-07T07:11:10;3;3;
49644;PMS5003;36494;50.730;-1.932;2023-04-07T07:13:36;5;5;
49644;PMS5003;36494;50.730;-1.932;2023-04-07T07:16:01;5;4;
49644;PMS5003;36494;50.730;-1.932;2023-04-07T07:18:26;4;4;
49644;PMS5003;36494;50.730;-1.932;2023-04-07T07:20:51;4;4;
49644;PMS5003;36494;50.730;-1.932;2023-04-07T07:23:17;6;5;
49644;PMS5003;36494;50.730;-1.932;2023-04-07T07:25:42;4;4;
49644;PMS5003;36494;50.730;-1.932;2023-04-07T07:28:07;4;4;
49644;PMS5003;36494;50.730;-1.932;2023-04-07T07:30:33;3;3;
49644;PMS5003;36494;50.730;-1.932;2023-04-07T07:32:57;4;4;
49644;PMS5003;36494;50.730;-1.932;2023-04-07T07:35:23;4;4;
49644;PMS5003;36494;50.730;-1.932;2023-04-07T07:37:48;1;1;
49644;PMS5003;36494;50.730;-1.932;2023-04-07T07:40:14;2;2;
49644;PMS5003;36494;50.730;-1.932;2023-04-07T07:42:39;3;2;
49644;PMS5003;36494;50.730;-1.932;2023-04-07T07:45:05;3;3;
49644;PMS5003;36494;50.730;-1.932;2023-04-07T07:47:30;3;2;
49644;PMS5003;36494;50.730;-1.932;2023-04-07T07:49:55;3;3;
49644;PMS5003;36494;50.730;-1.932;2023-04-07T07:52:21;3;3;
49644;PMS5003;36494;50.730;-1.932;2023-04-07T07:54:47;6;6;
49644;PMS5003;36494;50.730;-1.932;2023-04-07T07:57:12;2;2;
49644;PMS5003;36494;50.730;-1.932;2023-04-07T07:59:38;4;4;
49644;PMS5003;36494;50.730;-1.932;2023-04-07T08:02:03;4;3;
49644;PMS5003;36494;50.730;-1.932;2023-04-07T08:04:29;2;2;
49644;PMS5003;36494;50.730;-1.932;2023-04-07T08:06:54;3;2;
49644;PMS5003;36494;50.730;-1.932;2023-04-07T08:09:19;4;4;
49644;PMS5003;36494;50.730;-1.932;2023-04-07T08:11:45;5;5;
49644;PMS5003;36494;50.730;-1.932;2023-04-07T08:14:10;6;5;
49644;PMS5003;36494;50.730;-1.932;2023-04-07T08:16:36;11;11;
49644;PMS5003;36494;50.730;-1.932;2023-04-07T08:19:02;44;44;
49644;PMS5003;36494;50.730;-1.932;2023-04-07T08:21:27;37;37;
49644;PMS5003;36494;50.730;-1.932;2023-04-07T08:23:52;40;40;
49644;PMS5003;36494;50.730;-1.932;2023-04-07T08:26:18;49;49;
49644;PMS5003;36494;50.730;-1.932;2023-04-07T08:28:43;40;40;
49644;PMS5003;36494;50.730;-1.932;2023-04-07T08:31:09;30;30;
49644;PMS5003;36494;50.730;-1.932;2023-04-07T08:33:34;33;33;
49644;PMS5003;36494;50.730;-1.932;2023-04-07T08:36:00;24;24;
49644;PMS5003;36494;50.730;-1.932;2023-04-07T08:38:25;19;19;
49644;PMS5003;36494;50.730;-1.932;2023-04-07T08:40:52;30;29;
49644;PMS5003;36494;50.730;-1.932;2023-04-07T08:43:17;12;12;
49644;PMS5003;36494;50.730;-1.932;2023-04-07T08:45:42;11;11;
49644;PMS5003;36494;50.730;-1.932;2023-04-07T08:48:09;7;7;
49644;PMS5003;36494;50.730;-1.932;2023-04-07T08:50:33;4;4;
49644;PMS5003;36494;50.730;-1.932;2023-04-07T08:52:59;5;5;
49644;PMS5003;36494;50.730;-1.932;2023-04-07T08:55:24;5;5;
49644;PMS5003;36494;50.730;-1.932;2023-04-07T08:57:49;8;8;
49644;PMS5003;36494;50.730;-1.932;2023-04-07T09:00:15;8;8;
49644;PMS5003;36494;50.730;-1.932;2023-04-07T09:02:41;4;4;
49644;PMS5003;36494;50.730;-1.932;2023-04-07T09:05:06;4;3;
49644;PMS5003;36494;50.730;-1.932;2023-04-07T09:07:32;2;2;
49644;PMS5003;36494;50.730;-1.932;2023-04-07T09:09:56;0;0;
49644;PMS5003;36494;50.730;-1.932;2023-04-07T09:12:21;2;2;
49644;PMS5003;36494;50.730;-1.932;2023-04-07T09:14:47;2;2;
49644;PMS5003;36494;50.730;-1.932;2023-04-07T09:17:12;1;1;
49644;PMS5003;36494;50.730;-1.932;2023-04-07T09:19:38;2;2;
49644;PMS5003;36494;50.730;-1.932;2023-04-07T09:22:03;3;2;
49644;PMS5003;36494;50.730;-1.932;2023-04-07T09:24:28;2;2;
49644;PMS5003;36494;50.730;-1.932;2023-04-07T09:29:19;0;0;
49644;PMS5003;36494;50.730;-1.932;2023-04-07T09:31:45;2;2;
49644;PMS5003;36494;50.730;-1.932;2023-04-07T09:36:37;2;1;
49644;PMS5003;36494;50.730;-1.932;2023-04-07T09:41:26;3;3;
49644;PMS5003;36494;50.730;-1.932;2023-04-07T09:43:55;3;3;
49644;PMS5003;36494;50.730;-1.932;2023-04-07T09:46:17;2;2;
49644;PMS5003;36494;50.730;-1.932;2023-04-07T09:48:43;4;3;
49644;PMS5003;36494;50.730;-1.932;2023-04-07T09:51:08;3;3;
49644;PMS5003;36494;50.730;-1.932;2023-04-07T09:53:41;2;1;
49644;PMS5003;36494;50.730;-1.932;2023-04-07T09:55:58;3;3;
49644;PMS5003;36494;50.730;-1.932;2023-04-07T09:58:24;4;4;
49644;PMS5003;36494;50.730;-1.932;2023-04-07T10:00:49;3;3;
49644;PMS5003;36494;50.730;-1.932;2023-04-07T10:03:14;3;3;
49644;PMS5003;36494;50.730;-1.932;2023-04-07T10:05:40;4;3;
49644;PMS5003;36494;50.730;-1.932;2023-04-07T10:08:05;2;2;
49644;PMS5003;36494;50.730;-1.932;2023-04-07T10:10:30;3;3;
49644;PMS5003;36494;50.730;-1.932;2023-04-07T10:12:56;2;2;
49644;PMS5003;36494;50.730;-1.932;2023-04-07T10:15:21;2;2;
49644;PMS5003;36494;50.730;-1.932;2023-04-07T10:17:46;2;2;
49644;PMS5003;36494;50.730;-1.932;2023-04-07T10:20:12;3;3;
49644;PMS5003;36494;50.730;-1.932;2023-04-07T10:22:37;2;2;
49644;PMS5003;36494;50.730;-1.932;2023-04-07T10:25:03;3;3;
49644;PMS5003;36494;50.730;-1.932;2023-04-07T10:27:29;3;3;
49644;PMS5003;36494;50.730;-1.932;2023-04-07T10:29:53;3;2;
49644;PMS5003;36494;50.730;-1.932;2023-04-07T10:32:19;2;2;
49644;PMS5003;36494;50.730;-1.932;2023-04-07T10:37:10;3;3;
49644;PMS5003;36494;50.730;-1.932;2023-04-07T10:39:34;4;4;
49644;PMS5003;36494;50.730;-1.932;2023-04-07T10:42:00;4;4;
49644;PMS5003;36494;50.730;-1.932;2023-04-07T10:49:16;2;2;
49644;PMS5003;36494;50.730;-1.932;2023-04-07T10:51:41;2;2;
49644;PMS5003;36494;50.730;-1.932;2023-04-07T11:01:22;3;2;
49644;PMS5003;36494;50.730;-1.932;2023-04-07T11:03:52;5;4;
49644;PMS5003;36494;50.730;-1.932;2023-04-07T11:06:13;3;3;
49644;PMS5003;36494;50.730;-1.932;2023-04-07T11:08:39;3;3;
49644;PMS5003;36494;50.730;-1.932;2023-04-07T11:11:04;5;4;
49644;PMS5003;36494;50.730;-1.932;2023-04-07T11:13:29;6;5;
49644;PMS5003;36494;50.730;-1.932;2023-04-07T11:15:54;3;3;
49644;PMS5003;36494;50.730;-1.932;2023-04-07T11:18:20;2;2;
49644;PMS5003;36494;50.730;-1.932;2023-04-07T11:20:46;6;4;
49644;PMS5003;36494;50.730;-1.932;2023-04-07T11:23:10;4;4;
49644;PMS5003;36494;50.730;-1.932;2023-04-07T11:25:35;3;3;
49644;PMS5003;36494;50.730;-1.932;2023-04-07T11:28:02;3;3;
49644;PMS5003;36494;50.730;-1.932;2023-04-07T11:30:27;2;2;
49644;PMS5003;36494;50.730;-1.932;2023-04-07T11:32:52;4;3;
49644;PMS5003;36494;50.730;-1.932;2023-04-07T11:35:17;3;3;
49644;PMS5003;36494;50.730;-1.932;2023-04-07T11:37:42;2;2;
49644;PMS5003;36494;50.730;-1.932;2023-04-07T11:40:08;3;2;
49644;PMS5003;36494;50.730;-1.932;2023-04-07T11:42:33;3;3;
49644;PMS5003;36494;50.730;-1.932;2023-04-07T11:44:59;1;1;
49644;PMS5003;36494;50.730;-1.932;2023-04-07T11:49:49;1;1;
49644;PMS5003;36494;50.730;-1.932;2023-04-07T11:52:15;0;0;
49644;PMS5003;36494;50.730;-1.932;2023-04-07T11:54:40;1;1;
49644;PMS5003;36494;50.730;-1.932;2023-04-07T11:57:05;1;1;
49644;PMS5003;36494;50.730;-1.932;2023-04-07T11:59:30;2;1;
49644;PMS5003;36494;50.730;-1.932;2023-04-07T12:01:56;1;1;
49644;PMS5003;36494;50.730;-1.932;2023-04-07T12:04:21;1;1;
49644;PMS5003;36494;50.730;-1.932;2023-04-07T12:06:46;1;1;
49644;PMS5003;36494;50.730;-1.932;2023-04-07T12:11:47;1;1;
49644;PMS5003;36494;50.730;-1.932;2023-04-07T12:14:02;2;2;
49644;PMS5003;36494;50.730;-1.932;2023-04-07T12:16:27;2;2;
49644;PMS5003;36494;50.730;-1.932;2023-04-07T12:18:52;1;1;
49644;PMS5003;36494;50.730;-1.932;2023-04-07T12:21:18;4;4;
49644;PMS5003;36494;50.730;-1.932;2023-04-07T12:23:43;6;5;
49644;PMS5003;36494;50.730;-1.932;2023-04-07T12:26:08;2;2;
49644;PMS5003;36494;50.730;-1.932;2023-04-07T12:28:34;5;4;
49644;PMS5003;36494;50.730;-1.932;2023-04-07T12:30:59;2;2;
49644;PMS5003;36494;50.730;-1.932;2023-04-07T12:33:24;1;1;
49644;PMS5003;36494;50.730;-1.932;2023-04-07T12:35:50;3;2;
49644;PMS5003;36494;50.730;-1.932;2023-04-07T12:38:15;2;2;
49644;PMS5003;36494;50.730;-1.932;2023-04-07T12:40:40;3;3;
49644;PMS5003;36494;50.730;-1.932;2023-04-07T12:43:05;3;3;
49644;PMS5003;36494;50.730;-1.932;2023-04-07T12:45:31;3;3;
49644;PMS5003;36494;50.730;-1.932;2023-04-07T12:47:56;4;3;
49644;PMS5003;36494;50.730;-1.932;2023-04-07T12:50:21;4;3;
49644;PMS5003;36494;50.730;-1.932;2023-04-07T12:52:46;3;2;
49644;PMS5003;36494;50.730;-1.932;2023-04-07T12:55:12;3;3;
49644;PMS5003;36494;50.730;-1.932;2023-04-07T12:57:37;2;2;
49644;PMS5003;36494;50.730;-1.932;2023-04-07T13:00:03;3;3;
49644;PMS5003;36494;50.730;-1.932;2023-04-07T13:02:28;3;3;
49644;PMS5003;36494;50.730;-1.932;2023-04-07T13:04:53;1;1;
49644;PMS5003;36494;50.730;-1.932;2023-04-07T13:07:18;5;3;
49644;PMS5003;36494;50.730;-1.932;2023-04-07T13:09:44;1;1;
49644;PMS5003;36494;50.730;-1.932;2023-04-07T13:12:09;2;2;
49644;PMS5003;36494;50.730;-1.932;2023-04-07T13:14:34;3;2;
49644;PMS5003;36494;50.730;-1.932;2023-04-07T13:17:00;2;2;
49644;PMS5003;36494;50.730;-1.932;2023-04-07T13:19:25;1;1;
49644;PMS5003;36494;50.730;-1.932;2023-04-07T13:21:50;3;3;
49644;PMS5003;36494;50.730;-1.932;2023-04-07T13:24:15;3;3;
49644;PMS5003;36494;50.730;-1.932;2023-04-07T13:26:41;1;1;
49644;PMS5003;36494;50.730;-1.932;2023-04-07T13:29:06;2;2;
49644;PMS5003;36494;50.730;-1.932;2023-04-07T13:31:31;1;0;
49644;PMS5003;36494;50.730;-1.932;2023-04-07T13:33:57;1;1;
49644;PMS5003;36494;50.730;-1.932;2023-04-07T13:36:22;2;2;
49644;PMS5003;36494;50.730;-1.932;2023-04-07T13:38:47;1;1;
49644;PMS5003;36494;50.730;-1.932;2023-04-07T13:41:12;2;2;
49644;PMS5003;36494;50.730;-1.932;2023-04-07T13:43:38;3;2;
49644;PMS5003;36494;50.730;-1.932;2023-04-07T13:46:03;3;3;
49644;PMS5003;36494;50.730;-1.932;2023-04-07T13:48:28;2;2;
49644;PMS5003;36494;50.730;-1.932;2023-04-07T13:50:53;2;2;
49644;PMS5003;36494;50.730;-1.932;2023-04-07T13:53:19;2;2;
49644;PMS5003;36494;50.730;-1.932;2023-04-07T13:55:44;2;2;
49644;PMS5003;36494;50.730;-1.932;2023-04-07T13:58:09;1;1;
49644;PMS5003;36494;50.730;-1.932;2023-04-07T14:00:34;2;2;
49644;PMS5003;36494;50.730;-1.932;2023-04-07T14:03:00;0;0;
49644;PMS5003;36494;50.730;-1.932;2023-04-07T14:05:26;1;1;
49644;PMS5003;36494;50.730;-1.932;2023-04-07T14:07:51;0;0;
49644;PMS5003;36494;50.730;-1.932;2023-04-07T14:10:17;1;1;
49644;PMS5003;36494;50.730;-1.932;2023-04-07T14:12:42;1;1;
49644;PMS5003;36494;50.730;-1.932;2023-04-07T14:15:08;3;2;
49644;PMS5003;36494;50.730;-1.932;2023-04-07T14:17:32;1;1;
49644;PMS5003;36494;50.730;-1.932;2023-04-07T14:19:58;2;2;
49644;PMS5003;36494;50.730;-1.932;2023-04-07T14:22:23;0;0;
49644;PMS5003;36494;50.730;-1.932;2023-04-07T14:24:48;2;1;
49644;PMS5003;36494;50.730;-1.932;2023-04-07T14:27:14;1;1;
49644;PMS5003;36494;50.730;-1.932;2023-04-07T14:29:39;3;2;
49644;PMS5003;36494;50.730;-1.932;2023-04-07T14:32:04;0;0;
49644;PMS5003;36494;50.730;-1.932;2023-04-07T14:34:30;1;1;
49644;PMS5003;36494;50.730;-1.932;2023-04-07T14:36:55;1;1;
49644;PMS5003;36494;50.730;-1.932;2023-04-07T14:39:20;1;1;
49644;PMS5003;36494;50.730;-1.932;2023-04-07T14:41:45;2;1;
49644;PMS5003;36494;50.730;-1.932;2023-04-07T14:44:11;2;2;
49644;PMS5003;36494;50.730;-1.932;2023-04-07T14:46:36;3;2;
49644;PMS5003;36494;50.730;-1.932;2023-04-07T14:49:01;1;1;
49644;PMS5003;36494;50.730;-1.932;2023-04-07T14:51:27;2;2;
49644;PMS5003;36494;50.730;-1.932;2023-04-07T14:53:52;1;1;
49644;PMS5003;36494;50.730;-1.932;2023-04-07T14:56:17;1;1;
49644;PMS5003;36494;50.730;-1.932;2023-04-07T14:58:43;0;0;
49644;PMS5003;36494;50.730;-1.932;2023-04-07T15:01:08;1;1;
49644;PMS5003;36494;50.730;-1.932;2023-04-07T15:03:33;0;0;
49644;PMS5003;36494;50.730;-1.932;2023-04-07T15:05:58;0;0;
49644;PMS5003;36494;50.730;-1.932;2023-04-07T15:08:24;0;0;
49644;PMS5003;36494;50.730;-1.932;2023-04-07T15:10:49;2;2;
49644;PMS5003;36494;50.730;-1.932;2023-04-07T15:13:14;0;0;
49644;PMS5003;36494;50.730;-1.932;2023-04-07T15:15:40;2;1;
49644;PMS5003;36494;50.730;-1.932;2023-04-07T15:18:05;0;0;
49644;PMS5003;36494;50.730;-1.932;2023-04-07T15:20:31;1;1;
49644;PMS5003;36494;50.730;-1.932;2023-04-07T15:22:56;1;1;
49644;PMS5003;36494;50.730;-1.932;2023-04-07T15:25:21;1;1;
49644;PMS5003;36494;50.730;-1.932;2023-04-07T15:27:47;0;0;
49644;PMS5003;36494;50.730;-1.932;2023-04-07T15:30:13;1;1;
49644;PMS5003;36494;50.730;-1.932;2023-04-07T15:32:38;2;2;
49644;PMS5003;36494;50.730;-1.932;2023-04-07T15:35:03;0;0;
49644;PMS5003;36494;50.730;-1.932;2023-04-07T15:37:28;1;1;
49644;PMS5003;36494;50.730;-1.932;2023-04-07T15:39:54;1;0;
49644;PMS5003;36494;50.730;-1.932;2023-04-07T15:42:19;1;1;
49644;PMS5003;36494;50.730;-1.932;2023-04-07T15:44:44;0;0;
49644;PMS5003;36494;50.730;-1.932;2023-04-07T15:47:10;0;0;
49644;PMS5003;36494;50.730;-1.932;2023-04-07T15:49:35;0;0;
49644;PMS5003;36494;50.730;-1.932;2023-04-07T15:52:01;0;0;
49644;PMS5003;36494;50.730;-1.932;2023-04-07T15:54:26;0;0;
49644;PMS5003;36494;50.730;-1.932;2023-04-07T15:56:51;0;0;
49644;PMS5003;36494;50.730;-1.932;2023-04-07T15:59:16;0;0;
49644;PMS5003;36494;50.730;-1.932;2023-04-07T16:01:41;0;0;
49644;PMS5003;36494;50.730;-1.932;2023-04-07T16:04:07;1;1;
49644;PMS5003;36494;50.730;-1.932;2023-04-07T16:06:32;0;0;
49644;PMS5003;36494;50.730;-1.932;2023-04-07T16:08:57;1;1;
49644;PMS5003;36494;50.730;-1.932;2023-04-07T16:11:23;0;0;
49644;PMS5003;36494;50.730;-1.932;2023-04-07T16:13:48;0;0;
49644;PMS5003;36494;50.730;-1.932;2023-04-07T16:16:13;0;0;
49644;PMS5003;36494;50.730;-1.932;2023-04-07T16:18:39;0;0;
49644;PMS5003;36494;50.730;-1.932;2023-04-07T16:21:05;0;0;
49644;PMS5003;36494;50.730;-1.932;2023-04-07T16:23:29;1;1;
49644;PMS5003;36494;50.730;-1.932;2023-04-07T16:25:55;0;0;
49644;PMS5003;36494;50.730;-1.932;2023-04-07T16:28:20;0;0;
49644;PMS5003;36494;50.730;-1.932;2023-04-07T16:30:45;1;0;
49644;PMS5003;36494;50.730;-1.932;2023-04-07T16:33:10;0;0;
49644;PMS5003;36494;50.730;-1.932;2023-04-07T16:35:36;1;1;
49644;PMS5003;36494;50.730;-1.932;2023-04-07T16:38:01;0;0;
49644;PMS5003;36494;50.730;-1.932;2023-04-07T16:40:26;0;0;
49644;PMS5003;36494;50.730;-1.932;2023-04-07T16:42:52;0;0;
49644;PMS5003;36494;50.730;-1.932;2023-04-07T16:45:17;0;0;
49644;PMS5003;36494;50.730;-1.932;2023-04-07T16:47:42;0;0;